Time;durP1;ratioP1;P1;durP2;ratioP2;P2;SDS_P1;SDS_P2;PMS_P1;PMS_P2;Temp;Humidity;BMP_temperature;BMP_pressure;BME280_temperature;BME280_humidity;BME280_pressure;Samples;Min_cycle;Max_cycle;Signal;HPM_P1;HPM_P2
2023/06/30 00:02:18;;;;;;;12.63;3.10;;;;;;;14.61;100.00;101631.53;5036129;28;20120;-61
2023/06/30 00:04:43;;;;;;;7.25;2.50;;;;;;;14.59;100.00;101625.41;5046679;28;20032;-62
2023/06/30 00:07:10;;;;;;;15.63;3.00;;;;;;;14.61;100.00;101630.66;5027873;28;20114;-60
2023/06/30 00:09:35;;;;;;;14.88;3.35;;;;;;;14.62;100.00;101625.31;5009072;28;20032;-62
2023/06/30 00:12:00;;;;;;;8.23;2.80;;;;;;;14.63;100.00;101629.69;5009194;28;20025;-61
2023/06/30 00:14:26;;;;;;;13.05;3.47;;;;;;;14.65;100.00;101627.84;5027805;28;20488;-63
2023/06/30 00:16:51;;;;;;;11.43;3.42;;;;;;;14.57;100.00;101632.56;5027178;28;20458;-62
2023/06/30 00:19:17;;;;;;;12.52;2.90;;;;;;;14.48;100.00;101631.13;5027059;28;20033;-60
2023/06/30 00:21:43;;;;;;;7.50;2.88;;;;;;;14.47;100.00;101620.56;5027313;28;20095;-63
2023/06/30 00:24:10;;;;;;;10.80;3.10;;;;;;;14.46;100.00;101622.38;5026864;28;20458;-62
2023/06/30 00:26:36;;;;;;;10.65;3.40;;;;;;;14.47;100.00;101620.56;5027716;28;20033;-62
2023/06/30 00:29:01;;;;;;;8.13;3.35;;;;;;;14.47;100.00;101616.16;5026260;28;20107;-63
2023/06/30 00:31:27;;;;;;;6.63;3.10;;;;;;;14.45;100.00;101611.84;5027585;28;20040;-63
2023/06/30 00:33:52;;;;;;;15.02;3.83;;;;;;;14.49;100.00;101614.31;5026558;28;20049;-61
2023/06/30 00:36:18;;;;;;;9.00;3.25;;;;;;;14.48;100.00;101611.72;5026975;28;20029;-62
2023/06/30 00:38:44;;;;;;;10.10;3.72;;;;;;;14.44;100.00;101610.97;5027350;28;20072;-62
2023/06/30 00:41:09;;;;;;;13.68;4.15;;;;;;;14.49;100.00;101608.13;5025816;28;20077;-61
2023/06/30 00:43:35;;;;;;;13.85;3.67;;;;;;;14.43;100.00;101603.94;5025859;28;20033;-60
2023/06/30 00:46:01;;;;;;;10.02;3.65;;;;;;;14.36;100.00;101605.94;5026328;28;20032;-61
2023/06/30 00:48:26;;;;;;;14.77;3.78;;;;;;;14.34;100.00;101605.16;5008133;28;20032;-60
2023/06/30 00:50:52;;;;;;;12.48;3.58;;;;;;;14.36;100.00;101611.25;5024460;28;20025;-61
2023/06/30 00:53:18;;;;;;;9.35;3.53;;;;;;;14.36;100.00;101607.75;5027362;28;20465;-61
2023/06/30 00:55:44;;;;;;;12.00;4.03;;;;;;;14.35;100.00;101606.00;5008541;28;20417;-62
2023/06/30 00:58:10;;;;;;;10.82;3.58;;;;;;;14.28;100.00;101614.19;5009086;28;20017;-61
2023/06/30 01:00:35;;;;;;;13.63;4.10;;;;;;;14.30;100.00;101614.13;5026158;28;20021;-61
2023/06/30 01:03:27;;;;;;;11.65;3.55;;;;;;;14.27;100.00;101608.97;5026450;28;20843;-60
2023/06/30 01:06:13;;;;;;;12.98;3.63;;;;;;;14.24;100.00;101609.91;5025584;28;20507;-62
2023/06/30 01:08:59;;;;;;;12.50;3.40;;;;;;;14.19;100.00;101606.59;5025971;28;20069;-61
2023/06/30 01:11:25;;;;;;;10.98;3.67;;;;;;;14.15;100.00;101611.13;5008777;28;20467;-62
2023/06/30 01:13:53;;;;;;;9.82;3.85;;;;;;;14.10;100.00;101609.56;4992192;28;20124;-61
2023/06/30 01:16:21;;;;;;;7.25;3.40;;;;;;;14.06;100.00;101611.44;5009050;28;20371;-61
2023/06/30 01:18:46;;;;;;;8.70;3.70;;;;;;;13.98;100.00;101608.22;4993073;28;20029;-61
2023/06/30 01:21:13;;;;;;;12.35;4.00;;;;;;;13.86;100.00;101610.41;5025739;28;20025;-60
2023/06/30 01:23:43;;;;;;;7.70;2.92;;;;;;;13.82;100.00;101607.91;5009543;28;20033;-60
2023/06/30 01:26:09;;;;;;;6.43;3.70;;;;;;;13.70;100.00;101594.16;5011570;28;20030;-61
2023/06/30 01:28:34;;;;;;;10.52;3.72;;;;;;;13.67;100.00;101593.44;4994882;28;20052;-61
2023/06/30 01:31:00;;;;;;;11.85;3.40;;;;;;;13.68;100.00;101605.75;5011727;28;20022;-61
2023/06/30 01:33:27;;;;;;;11.70;3.90;;;;;;;13.66;100.00;101602.28;5030619;28;20104;-61
2023/06/30 01:35:53;;;;;;;6.28;3.85;;;;;;;13.63;100.00;101598.81;5028842;28;20090;-61
2023/06/30 01:38:19;;;;;;;7.35;3.80;;;;;;;13.62;100.00;101602.41;5030645;28;20505;-61
2023/06/30 01:40:46;;;;;;;7.45;3.22;;;;;;;13.60;100.00;101598.94;5028154;28;20062;-60
2023/06/30 01:43:12;;;;;;;9.15;3.13;;;;;;;13.61;100.00;101611.25;5012258;28;20393;-60
2023/06/30 01:45:38;;;;;;;7.47;3.88;;;;;;;13.64;100.00;101602.34;5029033;28;20723;-61
2023/06/30 01:48:04;;;;;;;9.60;4.10;;;;;;;13.64;100.00;101605.84;5011093;28;20030;-60
2023/06/30 01:50:31;;;;;;;12.57;4.00;;;;;;;13.60;100.00;101593.63;5028484;28;20180;-61
2023/06/30 01:52:57;;;;;;;9.43;4.00;;;;;;;13.60;100.00;101600.69;5029728;28;20100;-62
2023/06/30 01:55:23;;;;;;;15.80;4.00;;;;;;;13.59;100.00;101597.22;5028951;28;20576;-61
2023/06/30 01:57:48;;;;;;;8.05;3.80;;;;;;;13.57;100.00;101591.09;5030238;28;20057;-61
2023/06/30 02:00:14;;;;;;;8.82;3.47;;;;;;;13.51;100.00;101589.53;5029057;28;20479;-61
2023/06/30 02:02:42;;;;;;;8.70;4.15;;;;;;;13.51;100.00;101588.66;5029163;28;20119;-61
2023/06/30 02:05:08;;;;;;;11.53;3.40;;;;;;;13.55;100.00;101590.28;5028994;28;20021;-61
2023/06/30 02:07:33;;;;;;;9.27;3.70;;;;;;;13.53;100.00;101584.19;5011031;28;20283;-61
2023/06/30 02:09:59;;;;;;;8.70;4.05;;;;;;;13.53;100.00;101586.81;5029084;28;20032;-61
2023/06/30 02:12:24;;;;;;;8.40;3.38;;;;;;;13.51;100.00;101578.06;5029171;28;20033;-61
2023/06/30 02:14:49;;;;;;;9.20;3.33;;;;;;;13.51;100.00;101588.66;5030046;28;20665;-60
2023/06/30 02:17:15;;;;;;;9.60;4.05;;;;;;;13.50;100.00;101581.63;5028541;28;20070;-60
2023/06/30 02:19:41;;;;;;;7.88;3.38;;;;;;;13.50;100.00;101587.81;5028130;28;20477;-62
2023/06/30 02:22:06;;;;;;;7.43;3.60;;;;;;;13.46;100.00;101574.69;5028650;28;20091;-61
2023/06/30 02:24:31;;;;;;;6.72;3.30;;;;;;;13.42;100.00;101586.31;5029485;28;20029;-61
2023/06/30 02:26:57;;;;;;;8.20;3.50;;;;;;;13.35;100.00;101583.88;5028469;28;20466;-62
2023/06/30 02:29:22;;;;;;;5.78;3.38;;;;;;;13.30;100.00;101577.00;5028391;28;20056;-61
2023/06/30 02:31:48;;;;;;;7.72;3.50;;;;;;;13.28;100.00;101579.69;5029702;28;20118;-62
2023/06/30 02:34:13;;;;;;;7.32;3.40;;;;;;;13.27;100.00;101576.16;5028168;28;20474;-60
2023/06/30 02:36:38;;;;;;;10.63;3.60;;;;;;;13.24;100.00;101575.41;5028887;28;20040;-62
2023/06/30 02:39:04;;;;;;;7.55;3.58;;;;;;;13.27;100.00;101580.59;5028759;28;20502;-62
2023/06/30 02:41:29;;;;;;;7.93;3.50;;;;;;;13.25;100.00;101585.09;5029018;28;20038;-61
2023/06/30 02:43:55;;;;;;;4.97;3.10;;;;;;;13.32;100.00;101586.59;5028506;28;20470;-61
2023/06/30 02:46:20;;;;;;;11.90;3.38;;;;;;;13.36;100.00;101582.94;5029502;28;20044;-63
2023/06/30 02:48:45;;;;;;;11.32;4.18;;;;;;;13.45;100.00;101584.41;5028149;28;20492;-61
2023/06/30 02:51:11;;;;;;;7.18;3.30;;;;;;;13.53;100.00;101586.81;5027753;28;20083;-62
2023/06/30 02:53:37;;;;;;;15.88;3.60;;;;;;;13.58;100.00;101582.22;5027415;28;20114;-61
2023/06/30 02:56:02;;;;;;;7.88;3.30;;;;;;;13.60;100.00;101583.03;5028385;28;20418;-62
2023/06/30 02:58:28;;;;;;;8.85;3.33;;;;;;;13.64;100.00;101583.81;5026524;28;20084;-61
2023/06/30 03:00:55;;;;;;;9.32;3.00;;;;;;;13.66;100.00;101581.94;5028299;28;20036;-62
2023/06/30 03:03:20;;;;;;;10.13;2.90;;;;;;;13.66;100.00;101581.94;5028757;28;20032;-62
2023/06/30 03:05:45;;;;;;;8.07;2.85;;;;;;;13.62;100.00;101578.56;5027982;28;20026;-60
2023/06/30 03:08:11;;;;;;;8.98;3.10;;;;;;;13.64;100.00;101576.72;5027896;28;20363;-62
2023/06/30 03:10:36;;;;;;;8.65;2.85;;;;;;;13.65;100.00;101580.25;5028607;28;20032;-62
2023/06/30 03:13:02;;;;;;;9.00;3.08;;;;;;;13.69;100.00;101581.00;5028018;28;20025;-61
2023/06/30 03:15:27;;;;;;;5.85;2.80;;;;;;;13.70;100.00;101580.09;5027598;28;20073;-61
2023/06/30 03:17:55;;;;;;;10.88;3.13;;;;;;;13.77;100.00;101578.94;5028241;28;20053;-61
2023/06/30 03:20:20;;;;;;;6.05;2.65;;;;;;;13.82;100.00;101574.31;5027413;28;20028;-62
2023/06/30 03:22:45;;;;;;;11.73;3.63;;;;;;;13.83;100.00;101578.72;5028594;28;20108;-61
2023/06/30 03:25:11;;;;;;;8.88;2.80;;;;;;;13.83;100.00;101573.44;5026794;28;20096;-60
2023/06/30 03:27:36;;;;;;;14.23;3.28;;;;;;;13.86;100.00;101581.25;5028214;28;20049;-61
2023/06/30 03:30:04;;;;;;;9.02;2.85;;;;;;;13.81;100.00;101585.84;5027309;28;20136;-61
2023/06/30 03:32:29;;;;;;;8.85;3.38;;;;;;;13.84;100.00;101577.78;5028252;28;20032;-62
2023/06/30 03:34:55;;;;;;;6.25;3.00;;;;;;;13.89;100.00;101586.47;5026205;28;20021;-62
2023/06/30 03:37:20;;;;;;;10.43;3.33;;;;;;;13.89;100.00;101585.56;5028764;28;20385;-62
2023/06/30 03:39:46;;;;;;;7.03;3.35;;;;;;;13.93;100.00;101583.69;5028064;28;20017;-62
2023/06/30 03:42:12;;;;;;;7.88;2.90;;;;;;;13.88;100.00;101590.00;5027787;28;20045;-61
2023/06/30 03:44:37;;;;;;;9.40;3.55;;;;;;;13.92;100.00;101589.91;5027664;28;20401;-62
2023/06/30 03:47:03;;;;;;;6.65;3.20;;;;;;;14.00;100.00;101586.03;5027127;28;20029;-60
2023/06/30 03:49:28;;;;;;;4.40;2.90;;;;;;;14.00;100.00;101580.75;5026672;28;20029;-62
2023/06/30 03:51:53;;;;;;;8.13;3.40;;;;;;;14.04;100.00;101576.22;5027954;28;20041;-61
2023/06/30 03:54:19;;;;;;;4.72;2.63;;;;;;;14.05;100.00;101574.44;5027448;28;20025;-60
2023/06/30 03:56:44;;;;;;;8.15;3.28;;;;;;;14.08;100.00;101582.25;5027851;28;20071;-61
2023/06/30 03:59:09;;;;;;;8.95;3.40;;;;;;;14.08;100.00;101585.78;5026877;28;20029;-60
2023/06/30 04:01:35;;;;;;;6.65;3.08;;;;;;;14.11;100.00;101588.31;5004596;28;20029;-61
2023/06/30 04:04:01;;;;;;;5.57;3.00;;;;;;;14.17;100.00;101581.06;5017275;28;20026;-62
2023/06/30 04:06:27;;;;;;;7.60;2.88;;;;;;;14.24;100.00;101574.63;5023803;28;20034;-61
2023/06/30 04:08:53;;;;;;;4.45;2.60;;;;;;;14.25;100.00;101581.63;5026571;28;20037;-60
2023/06/30 04:11:18;;;;;;;11.77;3.15;;;;;;;14.31;100.00;101578.75;5009513;28;20102;-61
2023/06/30 04:13:43;;;;;;;8.90;3.15;;;;;;;14.38;100.00;101574.06;5008880;28;20179;-60
2023/06/30 04:16:09;;;;;;;9.95;3.03;;;;;;;14.40;100.00;101572.22;5026954;28;20462;-61
2023/06/30 04:18:35;;;;;;;7.65;2.70;;;;;;;14.45;100.00;101567.59;5023998;28;20030;-63
2023/06/30 04:21:00;;;;;;;10.82;2.88;;;;;;;14.53;100.00;101567.31;5026865;28;20026;-61
2023/06/30 04:23:25;;;;;;;8.43;2.85;;;;;;;14.60;100.00;101568.78;5009664;28;20543;-63
2023/06/30 04:25:51;;;;;;;7.03;2.50;;;;;;;14.71;100.00;101562.19;4996502;28;20026;-63
2023/06/30 04:28:16;;;;;;;8.23;2.70;;;;;;;14.73;100.00;101570.97;5019182;28;20113;-61
2023/06/30 04:30:42;;;;;;;8.48;2.85;;;;;;;14.82;100.00;101564.47;5027255;28;20026;-61
2023/06/30 04:33:07;;;;;;;7.47;2.80;;;;;;;14.86;100.00;101569.59;5026521;28;20462;-61
2023/06/30 04:35:32;;;;;;;10.50;3.00;;;;;;;14.96;100.00;101559.44;5025974;28;20029;-61
2023/06/30 04:37:58;;;;;;;5.88;2.90;;;;;;;15.07;100.00;101563.44;5026674;28;20030;-61
2023/06/30 04:40:23;;;;;;;6.93;2.55;;;;;;;15.13;100.00;101566.72;5026156;28;20017;-60
2023/06/30 04:42:48;;;;;;;8.93;3.20;;;;;;;15.26;100.00;101569.72;5027198;28;20438;-59
2023/06/30 04:45:14;;;;;;;12.40;3.15;;;;;;;15.28;100.00;101564.34;5026882;28;20516;-62
2023/06/30 04:47:39;;;;;;;6.45;2.70;;;;;;;15.36;100.00;101572.00;5009119;28;20039;-62
2023/06/30 04:50:05;;;;;;;6.95;3.05;;;;;;;15.41;100.00;101576.19;5025029;28;20021;-61
2023/06/30 04:52:30;;;;;;;9.80;2.78;;;;;;;15.47;100.00;101571.56;5025909;28;20033;-61
2023/06/30 04:54:56;;;;;;;7.88;2.65;;;;;;;15.48;100.00;101578.56;5026877;28;20044;-61
2023/06/30 04:57:22;;;;;;;9.77;3.05;;;;;;;15.57;100.00;101577.31;5026974;28;20035;-61
2023/06/30 04:59:50;;;;;;;7.63;3.05;;;;;;;15.66;100.00;101579.56;5030771;28;20033;-61
2023/06/30 05:02:16;;;;;;;14.40;2.78;;;;;;;15.75;100.00;101575.66;5030326;28;20029;-60
2023/06/30 05:04:42;;;;;;;6.55;2.50;;;;;;;15.84;100.00;101569.06;5011326;28;20091;-60
2023/06/30 05:07:09;;;;;;;6.68;2.85;;;;;;;15.93;100.00;101571.31;5029892;28;20037;-61
2023/06/30 05:09:35;;;;;;;9.13;3.25;;;;;;;15.95;100.00;101571.25;5030417;28;20037;-61
2023/06/30 05:12:00;;;;;;;6.25;2.55;;;;;;;16.05;100.00;101572.59;5011632;28;20031;-62
2023/06/30 05:14:26;;;;;;;8.48;2.80;;;;;;;16.16;100.00;101572.94;5012467;28;20599;-61
2023/06/30 05:16:51;;;;;;;9.70;2.80;;;;;;;16.23;100.00;101572.66;5029041;28;20113;-62
2023/06/30 05:19:16;;;;;;;5.32;3.08;;;;;;;16.29;100.00;101573.22;5012332;28;20099;-62
2023/06/30 05:21:42;;;;;;;10.25;3.10;;;;;;;16.36;100.00;101567.63;5011823;28;20022;-61
2023/06/30 05:24:07;;;;;;;9.00;3.05;;;;;;;16.38;100.00;101568.44;5029616;28;20084;-61
2023/06/30 05:26:33;;;;;;;11.88;3.50;;;;;;;16.51;100.00;101572.25;5029632;28;20061;-62
2023/06/30 05:28:58;;;;;;;8.13;3.25;;;;;;;16.51;100.00;101571.38;5030014;28;20049;-60
2023/06/30 05:31:23;;;;;;;9.15;2.90;;;;;;;16.56;100.00;101569.38;5029334;28;20069;-61
2023/06/30 05:33:49;;;;;;;12.75;3.83;;;;;;;16.60;100.00;101570.06;5029392;28;20021;-62
2023/06/30 05:36:14;;;;;;;8.75;2.95;;;;;;;16.68;100.00;101554.63;5028041;28;20502;-61
2023/06/30 05:38:39;;;;;;;13.18;3.58;;;;;;;16.76;100.00;101559.53;5029818;28;20109;-62
2023/06/30 05:41:05;;;;;;;10.23;3.13;;;;;;;16.79;100.00;101560.25;5029282;28;20052;-61
2023/06/30 05:43:30;;;;;;;12.15;3.42;;;;;;;16.86;100.00;101559.97;5030112;28;20025;-61
2023/06/30 05:45:55;;;;;;;6.20;3.13;;;;;;;16.93;100.00;101567.59;5029411;28;20025;-60
2023/06/30 05:48:21;;;;;;;15.50;3.28;;;;;;;17.02;100.00;101566.25;5027631;28;20043;-63
2023/06/30 05:50:46;;;;;;;7.72;3.17;;;;;;;17.10;100.00;101568.56;5028930;28;20022;-62
2023/06/30 05:53:12;;;;;;;13.98;2.90;;;;;;;17.21;100.00;101573.34;5028063;28;20013;-61
2023/06/30 05:55:37;;;;;;;11.73;3.70;;;;;;;17.18;100.00;101565.50;5028615;28;20393;-61
2023/06/30 05:58:02;;;;;;;8.52;2.97;;;;;;;17.28;100.00;101571.25;5027456;28;20029;-62
2023/06/30 06:00:28;;;;;;;9.38;3.03;;;;;;;17.33;100.00;101569.19;5028939;28;20041;-62
2023/06/30 06:02:54;;;;;;;9.70;3.20;;;;;;;17.42;100.00;101565.19;5028293;28;20029;-62
2023/06/30 06:05:20;;;;;;;10.15;2.90;;;;;;;17.51;100.00;101566.53;5029027;28;20049;-61
2023/06/30 06:07:45;;;;;;;8.70;3.65;;;;;;;17.55;100.00;101563.63;5028297;28;20168;-62
2023/06/30 06:10:11;;;;;;;8.90;2.95;;;;;;;17.56;100.00;101559.16;5028385;28;20033;-61
2023/06/30 06:12:38;;;;;;;9.20;3.03;;;;;;;17.63;100.00;101565.88;5027827;28;20057;-60
2023/06/30 06:15:04;;;;;;;7.88;2.78;;;;;;;17.72;100.00;101561.00;5028518;28;20035;-62
2023/06/30 06:17:29;;;;;;;9.25;2.83;;;;;;;17.83;100.00;101569.31;5027932;28;20025;-62
2023/06/30 06:19:55;;;;;;;7.63;3.08;;;;;;;17.84;100.00;101568.34;5027821;28;20558;-62
2023/06/30 06:22:21;;;;;;;7.60;3.10;;;;;;;17.93;100.00;101570.53;5027760;28;20048;-63
2023/06/30 06:24:46;;;;;;;8.00;2.70;;;;;;;17.99;100.00;101572.00;5028744;28;20378;-61
2023/06/30 06:27:11;;;;;;;8.20;3.45;;;;;;;18.03;100.00;101572.72;5027943;28;20221;-63
2023/06/30 06:29:37;;;;;;;9.93;2.83;;;;;;;18.10;100.00;101567.91;5028293;28;20053;-62
2023/06/30 06:32:02;;;;;;;8.00;2.50;;;;;;;18.06;100.00;101575.19;5027096;28;20021;-63
2023/06/30 06:34:28;;;;;;;9.60;2.78;;;;;;;18.20;100.00;101571.81;5034904;28;20028;-63
2023/06/30 06:36:53;;;;;;;7.60;2.83;;;;;;;18.24;100.00;101565.38;5028682;28;20110;-61
2023/06/30 06:39:19;;;;;;;10.88;2.42;;;;;;;18.30;100.00;101577.50;5023690;28;20022;-63
2023/06/30 06:41:45;;;;;;;6.35;2.30;;;;;;;18.39;100.00;101566.31;5011941;28;20105;-62
2023/06/30 06:44:10;;;;;;;3.95;2.15;;;;;;;18.51;100.00;101577.28;5017213;28;20608;-63
2023/06/30 06:46:35;;;;;;;7.05;1.95;;;;;;;18.54;100.00;101575.28;5026724;28;20034;-61
2023/06/30 06:49:01;;;;;;;9.10;2.42;;;;;;;18.69;100.00;101578.91;5028437;28;20160;-62
2023/06/30 06:51:26;;;;;;;8.02;2.00;;;;;;;18.77;100.00;101577.59;5027670;28;20041;-62
2023/06/30 06:53:53;;;;;;;5.22;1.95;;;;;;;18.84;100.00;101572.78;5028909;28;20026;-62
2023/06/30 06:56:18;;;;;;;11.20;2.15;;;;;;;18.85;100.00;101570.03;5028946;28;20116;-61
2023/06/30 06:58:45;;;;;;;6.50;2.10;;;;;;;19.05;100.00;101571.53;5022117;28;20184;-69
2023/06/30 07:01:11;;;;;;;5.00;1.73;;;;;;;19.17;100.00;101571.78;5026658;28;20735;-59
2023/06/30 07:03:37;;;;;;;5.57;1.55;;;;;;;19.31;100.00;101570.97;5011241;28;20029;-67
2023/06/30 07:06:03;;;;;;;10.10;2.05;;;;;;;19.37;100.00;101559.91;5027659;28;20490;-63
2023/06/30 07:08:28;;;;;;;10.40;2.47;;;;;;;19.50;100.00;101567.22;5005560;28;20029;-61
2023/06/30 07:10:55;;;;;;;5.60;1.92;;;;;;;19.52;99.53;101559.94;5016801;28;20018;-60
2023/06/30 07:13:21;;;;;;;5.55;2.15;;;;;;;19.61;98.56;101564.72;5029781;28;20465;-62
2023/06/30 07:15:50;;;;;;;12.05;1.88;;;;;;;19.62;98.08;101558.41;5040029;28;20119;-58
2023/06/30 07:18:19;;;;;;;7.40;2.13;;;;;;;19.61;99.03;101567.41;5027474;28;20036;-59
2023/06/30 07:20:46;;;;;;;8.20;1.70;;;;;;;19.69;96.80;101569.63;5024644;28;20557;-61
2023/06/30 07:23:11;;;;;;;5.45;1.80;;;;;;;19.80;96.90;101561.78;5024953;28;20109;-57
2023/06/30 07:25:37;;;;;;;4.32;1.83;;;;;;;19.93;95.68;101564.53;5025867;28;20112;-55
2023/06/30 07:28:02;;;;;;;7.63;2.20;;;;;;;19.99;94.13;101563.31;5026388;28;20086;-59
2023/06/30 07:30:28;;;;;;;9.35;2.00;;;;;;;20.04;95.06;101561.25;5025684;28;20033;-58
2023/06/30 07:32:54;;;;;;;7.93;1.88;;;;;;;20.05;94.95;101565.63;5027273;28;20028;-56
2023/06/30 07:35:20;;;;;;;6.47;1.67;;;;;;;20.23;93.30;101559.22;5023582;28;20060;-58
2023/06/30 07:37:46;;;;;;;7.22;2.03;;;;;;;20.31;92.04;101564.91;5028172;28;20389;-59
2023/06/30 07:40:12;;;;;;;5.47;1.80;;;;;;;20.45;92.03;101562.25;5026672;28;20040;-58
2023/06/30 07:42:39;;;;;;;7.05;1.75;;;;;;;20.52;91.04;101564.50;5027505;28;20040;-60
2023/06/30 07:45:09;;;;;;;4.63;1.63;;;;;;;20.71;90.89;101564.19;5026006;28;20026;-56
2023/06/30 07:47:34;;;;;;;5.50;1.67;;;;;;;20.89;89.50;101555.88;5021704;28;20021;-58
2023/06/30 07:50:01;;;;;;;7.07;1.77;;;;;;;20.96;89.13;101555.38;5025737;28;20119;-57
2023/06/30 07:52:26;;;;;;;4.65;1.60;;;;;;;21.06;87.97;101544.03;5027315;28;20026;-57
2023/06/30 07:54:53;;;;;;;5.03;1.50;;;;;;;21.24;87.28;101544.63;5024486;28;20033;-59
2023/06/30 07:57:18;;;;;;;4.13;1.58;;;;;;;21.43;87.14;101552.25;5027547;28;20036;-59
2023/06/30 07:59:43;;;;;;;9.18;2.15;;;;;;;21.58;86.54;101554.81;5010135;28;20116;-58
2023/06/30 08:02:09;;;;;;;6.05;2.13;;;;;;;21.67;86.58;101545.31;5026696;28;20131;-57
2023/06/30 08:04:35;;;;;;;5.30;2.00;;;;;;;21.91;86.22;101550.75;5026888;28;20022;-58
2023/06/30 08:07:01;;;;;;;6.43;2.00;;;;;;;22.12;85.38;101547.50;5027153;28;20108;-59
2023/06/30 08:09:26;;;;;;;7.55;1.83;;;;;;;22.26;83.96;101548.34;5027334;28;20684;-58
2023/06/30 08:11:51;;;;;;;6.55;2.00;;;;;;;22.30;82.27;101539.94;5026027;28;20045;-58
2023/06/30 08:14:17;;;;;;;8.52;2.13;;;;;;;22.34;81.92;101540.59;5026698;28;20172;-57
2023/06/30 08:16:42;;;;;;;7.68;2.00;;;;;;;22.44;80.36;101551.50;5007774;28;20029;-57
2023/06/30 08:19:08;;;;;;;4.78;1.77;;;;;;;22.49;80.05;101546.66;5025436;28;20108;-55
2023/06/30 08:21:33;;;;;;;7.65;2.50;;;;;;;22.58;81.01;101546.00;5026802;28;20026;-59
2023/06/30 08:23:58;;;;;;;2.92;1.70;;;;;;;22.45;80.46;101545.16;5026191;28;20030;-58
2023/06/30 08:26:23;;;;;;;5.13;1.98;;;;;;;22.59;79.43;101549.56;5009305;28;20017;-58
2023/06/30 08:28:50;;;;;;;4.97;1.73;;;;;;;22.51;79.07;101543.88;5026239;28;20057;-57
2023/06/30 08:31:15;;;;;;;4.72;1.60;;;;;;;22.55;79.52;101539.97;5025707;28;20029;-59
2023/06/30 08:33:41;;;;;;;3.40;1.65;;;;;;;22.70;78.66;101530.78;5028816;28;20044;-59
2023/06/30 08:36:06;;;;;;;3.47;1.55;;;;;;;22.70;78.95;101541.53;5029641;28;20079;-59
2023/06/30 08:38:32;;;;;;;2.70;1.80;;;;;;;22.88;75.91;101535.78;5030080;28;20029;-56
2023/06/30 08:40:58;;;;;;;2.92;1.60;;;;;;;23.10;75.50;101531.44;5031318;28;20574;-58
2023/06/30 08:43:23;;;;;;;6.10;1.63;;;;;;;23.19;75.90;101530.75;5029900;28;20441;-57
2023/06/30 08:45:51;;;;;;;3.35;1.60;;;;;;;23.37;76.69;101522.25;5030609;28;20104;-58
2023/06/30 08:48:19;;;;;;;9.20;1.85;;;;;;;23.43;76.74;101513.72;4998764;28;20024;-57
2023/06/30 08:50:44;;;;;;;7.47;1.90;;;;;;;23.58;74.66;101513.47;5021030;28;20367;-57
2023/06/30 08:53:10;;;;;;;6.68;1.73;;;;;;;23.70;71.78;101512.50;5006152;28;20041;-57
2023/06/30 08:55:35;;;;;;;2.70;1.23;;;;;;;23.79;71.89;101504.66;5011197;28;20022;-58
2023/06/30 08:58:01;;;;;;;4.93;1.60;;;;;;;23.83;71.19;101511.50;5028272;28;20495;-58
2023/06/30 09:00:26;;;;;;;4.07;2.00;;;;;;;23.75;69.93;101493.28;5011778;28;20021;-58
2023/06/30 09:02:53;;;;;;;4.88;1.33;;;;;;;23.51;65.62;101501.47;5028144;28;20021;-59
2023/06/30 09:05:20;;;;;;;6.25;1.52;;;;;;;23.44;65.91;101507.34;5029133;28;20112;-60
2023/06/30 09:07:51;;;;;;;4.65;1.33;;;;;;;23.58;61.81;101503.56;5028661;28;20474;-55
2023/06/30 09:10:17;;;;;;;2.45;1.10;;;;;;;23.57;62.29;101503.69;5011780;28;20060;-60
2023/06/30 09:12:46;;;;;;;4.32;1.73;;;;;;;23.54;63.17;101498.56;5000740;28;20033;-60
2023/06/30 09:15:12;;;;;;;5.75;1.50;;;;;;;23.56;63.59;101496.56;5029722;28;20159;-57
2023/06/30 09:17:38;;;;;;;4.47;1.52;;;;;;;23.75;63.00;101497.81;5028605;28;20082;-56
2023/06/30 09:20:04;;;;;;;5.15;1.27;;;;;;;23.84;62.13;101497.09;5029322;28;20428;-56
2023/06/30 09:22:29;;;;;;;5.03;1.48;;;;;;;24.03;62.26;101491.06;5029481;28;20013;-59
2023/06/30 09:24:55;;;;;;;6.15;1.80;;;;;;;23.98;61.16;101488.75;5028466;28;20014;-57
2023/06/30 09:27:20;;;;;;;4.55;1.52;;;;;;;23.83;61.70;101490.84;5029859;28;20029;-61
2023/06/30 09:29:53;;;;;;;4.38;1.45;;;;;;;23.94;60.72;101481.91;5027229;28;20522;-60
2023/06/30 09:32:26;;;;;;;3.20;1.20;;;;;;;23.72;60.35;101482.78;5030071;28;20033;-57
2023/06/30 09:34:53;;;;;;;2.08;1.30;;;;;;;23.65;60.60;101481.53;5010015;28;20212;-56
2023/06/30 09:37:18;;;;;;;4.90;1.50;;;;;;;23.61;60.56;101497.09;5029533;28;20112;-58
2023/06/30 09:39:49;;;;;;;5.45;1.60;;;;;;;23.69;60.55;101489.25;5029359;28;20143;-58
2023/06/30 09:42:15;;;;;;;4.30;1.40;;;;;;;23.98;61.56;101482.50;5029796;28;20527;-58
2023/06/30 09:44:41;;;;;;;4.18;1.40;;;;;;;24.19;60.70;101485.31;5027609;28;20172;-58
2023/06/30 09:47:07;;;;;;;3.72;1.02;;;;;;;24.25;58.03;101486.63;5028384;28;20123;-60
2023/06/30 09:49:32;;;;;;;4.10;1.38;;;;;;;24.09;57.36;101481.63;5027162;28;20109;-58
2023/06/30 09:51:59;;;;;;;3.78;1.35;;;;;;;24.06;59.71;101480.06;5028124;28;20375;-57
2023/06/30 09:54:25;;;;;;;3.95;1.20;;;;;;;23.78;60.98;101481.44;5028964;28;20037;-56
2023/06/30 09:57:09;;;;;;;6.78;1.35;;;;;;;24.31;58.92;101477.19;5027407;28;20026;-58
2023/06/30 09:59:34;;;;;;;3.28;1.30;;;;;;;24.56;58.30;101480.53;5026426;28;20068;-58
2023/06/30 10:02:00;;;;;;;5.32;1.40;;;;;;;24.73;58.25;101479.09;5028249;28;20180;-56
2023/06/30 10:04:28;;;;;;;4.55;1.30;;;;;;;24.63;60.06;101465.56;5028950;28;20470;-57
2023/06/30 10:06:53;;;;;;;3.50;1.60;;;;;;;24.93;57.67;101463.09;5010205;28;20025;-56
2023/06/30 10:09:23;;;;;;;7.97;1.30;;;;;;;24.91;59.35;101462.38;5011724;28;20160;-56
2023/06/30 10:11:51;;;;;;;7.22;1.63;;;;;;;24.76;59.76;101453.72;5027665;28;20064;-56
2023/06/30 10:14:20;;;;;;;3.63;1.30;;;;;;;24.95;59.52;101458.47;5029501;28;20059;-57
2023/06/30 10:16:47;;;;;;;7.78;1.60;;;;;;;25.05;59.40;101471.97;5027984;28;20861;-57
2023/06/30 10:19:13;;;;;;;5.70;1.50;;;;;;;24.83;58.67;101460.34;5026357;28;20481;-59
2023/06/30 10:21:38;;;;;;;9.70;1.92;;;;;;;24.77;59.15;101455.47;5026336;28;20517;-57
2023/06/30 10:24:05;;;;;;;6.90;1.75;;;;;;;24.54;59.24;101460.94;5027112;28;20029;-57
2023/06/30 10:26:34;;;;;;;3.63;1.63;;;;;;;24.36;60.40;101464.22;5026545;28;20048;-60
2023/06/30 10:29:01;;;;;;;4.43;1.73;;;;;;;24.56;59.96;101467.06;5026823;28;20192;-56
2023/06/30 10:31:26;;;;;;;6.18;1.90;;;;;;;24.67;59.52;101461.63;5026424;28;20037;-57
2023/06/30 10:33:52;;;;;;;5.50;1.58;;;;;;;24.70;60.55;101450.59;5009558;28;20026;-56
2023/06/30 10:36:18;;;;;;;4.93;1.77;;;;;;;24.60;60.49;101446.97;5010503;28;20076;-57
2023/06/30 10:38:46;;;;;;;6.15;1.92;;;;;;;24.50;61.01;101443.34;5028907;28;20450;-57
2023/06/30 10:41:19;;;;;;;3.60;1.80;;;;;;;24.68;61.31;101441.78;5010547;28;20037;-57
2023/06/30 10:44:00;;;;;;;7.28;2.30;;;;;;;24.55;60.96;101436.56;5028778;28;20413;-58
2023/06/30 10:46:46;;;;;;;7.93;2.00;;;;;;;24.44;61.99;101440.16;5026474;28;20029;-55
2023/06/30 10:49:29;;;;;;;15.40;2.10;;;;;;;24.52;61.29;101441.34;5027400;28;20061;-57
2023/06/30 10:51:56;;;;;;;6.53;1.90;;;;;;;24.45;60.79;101441.91;5027540;28;20018;-58
2023/06/30 10:54:22;;;;;;;2.92;1.80;;;;;;;24.59;60.43;101439.88;5010554;28;20053;-56
2023/06/30 10:56:49;;;;;;;4.90;2.00;;;;;;;24.72;59.91;101440.50;5027971;28;20045;-58
2023/06/30 10:59:24;;;;;;;5.90;1.75;;;;;;;24.66;59.30;101437.50;5028528;28;20025;-55
2023/06/30 11:02:23;;;;;;;4.55;1.90;;;;;;;24.25;61.03;101430.09;5027903;28;20021;-58
2023/06/30 11:04:50;;;;;;;6.32;1.60;;;;;;;23.88;61.48;101420.50;5027555;28;20460;-56
2023/06/30 11:07:24;;;;;;;7.32;2.10;;;;;;;23.69;62.68;101429.22;5027530;28;20118;-57
2023/06/30 11:09:49;;;;;;;4.45;1.80;;;;;;;23.87;61.54;101426.00;5010109;28;20508;-55
2023/06/30 11:12:15;;;;;;;4.75;1.52;;;;;;;24.42;60.21;101409.84;5027515;28;20073;-57
2023/06/30 11:15:12;;;;;;;3.67;1.70;;;;;;;24.93;56.56;101420.84;5028147;28;20071;-58
2023/06/30 11:17:54;;;;;;;9.13;1.73;;;;;;;25.14;55.25;101424.50;4997677;28;20044;-55